Home > Products > Valid Products > TAF

000
FTUS45 KGGW 112320
TAFSDY
TAF
KSDY 112320Z 1200/1224 VRB06KT P6SM OVC016
     FM120300 01005KT P6SM VCSH OVC015
     FM121200 04008KT P6SM BKN040
     FM121800 09007KT P6SM BKN140
      AMD LTD TO CLD VIS AND WIND=



000
FTUS45 KGGW 112320
TAFOLF
TAF
KOLF 112320Z 1200/1224 VRB05KT P6SM OVC025
     FM120700 06006KT P6SM VCSH OVC015
     FM121200 08010KT P6SM BKN020
     FM121800 09010KT P6SM BKN050=



000
FTUS45 KGGW 112320
TAFGDV
TAF
KGDV 112320Z 1200/1224 VRB06KT P6SM OVC015
     FM120600 03006KT P6SM VCSH OVC010
     FM121800 08008KT P6SM BKN025
      AMD LTD TO CLD VIS AND WIND=



000
FTUS45 KGGW 112320
TAFGGW
TAF
KGGW 112320Z 1200/1224 VRB04KT P6SM OVC019
     FM120600 08007KT P6SM VCSH OVC015
     FM121200 08009KT P6SM BKN015=



000
FTUS45 KGGW 111726
TAFGDV
TAF
KGDV 111726Z 1118/1218 02009KT 5SM -SN BKN005
     FM120000 34008KT P6SM OVC015
     FM120300 36006KT P6SM OVC025
     FM120900 04009KT P6SM FEW008 BKN020
      AMD LTD TO CLD VIS AND WIND=



000
FTUS45 KGGW 111726
TAFSDY
TAF
KSDY 111726Z 1118/1218 03008KT 2SM -SN OVC015
     FM112100 02009KT P6SM VCSH OVC025
     FM120200 02006KT P6SM BKN020
     FM121200 05008KT P6SM FEW008 BKN020 OVC060
      AMD LTD TO CLD VIS AND WIND=



000
FTUS45 KGGW 111726
TAFGGW
TAF
KGGW 111726Z 1118/1218 06007KT P6SM VCSH FEW010 BKN025 OVC060
     FM120100 04006KT P6SM FEW010 BKN030
     FM120900 07007KT P6SM BKN010
     FM121500 10012KT P6SM BKN010=



000
FTUS45 KGGW 111726
TAFOLF
TAF
KOLF 111726Z 1118/1218 05008KT 2SM -SN FEW008 OVC025
     FM112000 05007KT P6SM VCSH OVC025
     FM121200 06010KT P6SM FEW008 BKN015=



000
FTUS45 KGGW 111726
TAFGDV
TAF
KGDV 111726Z 1118/1218 02009KT 5SM -SN BKN005
     FM120000 34008KT P6SM OVC015
     FM120300 36006KT P6SM OVC025
     FM120900 04009KT P6SM FEW008 BKN020
      AMD LTD TO CLD VIS AND WIND=



000
FTUS45 KGGW 111726
TAFOLF
TAF
KOLF 111726Z 1118/1218 05008KT 2SM -SN FEW008 OVC025
     FM112000 05007KT P6SM VCSH OVC025
     FM121200 06010KT P6SM FEW008 BKN015=



000
FTUS45 KGGW 111726
TAFSDY
TAF
KSDY 111726Z 1118/1218 03008KT 2SM -SN OVC015
     FM112100 02009KT P6SM VCSH OVC025
     FM120200 02006KT P6SM BKN020
     FM121200 05008KT P6SM FEW008 BKN020 OVC060
      AMD LTD TO CLD VIS AND WIND=



000
FTUS45 KGGW 111726
TAFGDV
TAF
KGDV 111726Z 1118/1218 02009KT 5SM -SN BKN005
     FM120000 34008KT P6SM OVC015
     FM120300 36006KT P6SM OVC025
     FM120900 04009KT P6SM FEW008 BKN020
      AMD LTD TO CLD VIS AND WIND=



000
FTUS45 KGGW 111726
TAFGGW
TAF
KGGW 111726Z 1118/1218 06007KT P6SM VCSH FEW010 BKN025 OVC060
     FM120100 04006KT P6SM FEW010 BKN030
     FM120900 07007KT P6SM BKN010
     FM121500 10012KT P6SM BKN010=



000
FTUS45 KGGW 111726
TAFOLF
TAF
KOLF 111726Z 1118/1218 05008KT 2SM -SN FEW008 OVC025
     FM112000 05007KT P6SM VCSH OVC025
     FM121200 06010KT P6SM FEW008 BKN015=



000
FTUS45 KGGW 111538 AAA
TAFGDV
TAF AMD
KGDV 111538Z 1116/1212 02005KT 1SM -SN OVC006
     FM111800 36006KT P6SM VCSH OVC008
     FM120000 35011KT P6SM OVC015
     FM120900 04009KT P6SM BKN010
      AMD LTD TO CLD VIS AND WIND=



000
FTUS45 KGGW 111537 AAB
TAFGGW
TAF AMD
KGGW 111537Z 1116/1212 08008KT 2SM -SN OVC020
     FM111800 05008KT P6SM BKN015
     FM120000 34005KT P6SM BKN020
     FM120600 04006KT P6SM BKN015
     FM120900 07007KT P6SM BKN008=



000
FTUS45 KGGW 111536 AAA
TAFOLF
TAF AMD
KOLF 111536Z 1116/1212 06010KT 1SM -SN BR OVC015
     FM111800 05008KT P6SM VCSH OVC008
     FM112000 02006KT P6SM OVC015
     FM120300 04006KT P6SM OVC020=



000
FTUS45 KGGW 111128
TAFGDV
TAF
KGDV 111128Z 1112/1212 07005KT 3SM -SN OVC010
     FM111500 36006KT P6SM VCSH OVC008
     FM120000 35011KT P6SM OVC015
     FM120900 04009KT P6SM BKN010
      AMD LTD TO CLD VIS AND WIND=



000
FTUS45 KGGW 111128
TAFGDV
TAF
KGDV 111128Z 1112/1212 07005KT 3SM -SN OVC010
     FM111500 36006KT P6SM VCSH OVC008
     FM120000 35011KT P6SM OVC015
     FM120900 04009KT P6SM BKN010
      AMD LTD TO CLD VIS AND WIND=



000
FTUS45 KGGW 111128
TAFGGW
TAF
KGGW 111128Z 1112/1212 10010KT P6SM VCSH OVC010
     FM111800 05008KT P6SM BKN015
     FM120000 34005KT P6SM BKN020
     FM120600 04006KT P6SM BKN015
     FM120900 07007KT P6SM BKN008=



000
FTUS45 KGGW 111128
TAFOLF
TAF
KOLF 111128Z 1112/1212 06010KT 2SM -SN OVC010
     FM111800 05008KT P6SM VCSH OVC008
     FM112000 02006KT P6SM OVC015
     FM120300 04006KT P6SM OVC020=



000
FTUS45 KGGW 111128
TAFOLF
TAF
KOLF 111128Z 1112/1212 06010KT 2SM -SN OVC010
     FM111800 05008KT P6SM VCSH OVC008
     FM112000 02006KT P6SM OVC015
     FM120300 04006KT P6SM OVC020=



000
FTUS45 KGGW 111128
TAFSDY
TAF
KSDY 111128Z 1112/1212 07004KT 1/2SM SN OVC010
     FM111800 02007KT P6SM VCSH OVC008
     FM120000 01005KT P6SM OVC010
     FM120900 02008KT P6SM BKN050
      AMD LTD TO CLD VIS AND WIND=



000
FTUS45 KGGW 111128
TAFGDV
TAF
KGDV 111128Z 1112/1212 07005KT 3SM -SN OVC010
     FM111500 36006KT P6SM VCSH OVC008
     FM120000 35011KT P6SM OVC015
     FM120900 04009KT P6SM BKN010
      AMD LTD TO CLD VIS AND WIND=



000
FTUS45 KGGW 111128
TAFSDY
TAF
KSDY 111128Z 1112/1212 07004KT 1/2SM SN OVC010
     FM111800 02007KT P6SM VCSH OVC008
     FM120000 01005KT P6SM OVC010
     FM120900 02008KT P6SM BKN050
      AMD LTD TO CLD VIS AND WIND=



000
FTUS45 KGGW 111128
TAFGGW
TAF
KGGW 111128Z 1112/1212 10010KT P6SM VCSH OVC010
     FM111800 05008KT P6SM BKN015
     FM120000 34005KT P6SM BKN020
     FM120600 04006KT P6SM BKN015
     FM120900 07007KT P6SM BKN008=



000
FTUS45 KGGW 111128
TAFOLF
TAF
KOLF 111128Z 1112/1212 06010KT 2SM -SN OVC010
     FM111800 05008KT P6SM VCSH OVC008
     FM112000 02006KT P6SM OVC015
     FM120300 04006KT P6SM OVC020=



000
FTUS45 KGGW 110919 AAB
TAFGGW
TAF AMD
KGGW 110919Z 1109/1206 12007KT 3SM -SN SCT020 OVC040
     FM111100 11008KT P6SM -SN OVC025
     FM112100 31006KT P6SM OVC015
     FM120100 33005KT P6SM BKN025=



000
FTUS45 KGGW 110919 AAB
TAFGGW
TAF AMD
KGGW 110919Z 1109/1206 12007KT 3SM -SN SCT020 OVC040
     FM111100 11008KT P6SM -SN OVC025
     FM112100 31006KT P6SM OVC015
     FM120100 33005KT P6SM BKN025=



000
FTUS45 KGGW 110917 AAA
TAFOLF
TAF AMD
KOLF 110917Z 1109/1206 07007KT 4SM -SN SCT020 OVC040
     FM111600 08006KT P6SM OVC010
     FM112100 31007KT P6SM OVC015=



000
FTUS45 KGGW 110520
TAFOLF
TAF
KOLF 110520Z 1106/1206 VRB03KT P6SM OVC020
     FM110700 09004KT 6SM -SN OVC025
     FM111800 08006KT P6SM OVC010
     FM112100 31007KT P6SM OVC015=



000
FTUS45 KGGW 110520
TAFOLF
TAF
KOLF 110520Z 1106/1206 VRB03KT P6SM OVC020
     FM110700 09004KT 6SM -SN OVC025
     FM111800 08006KT P6SM OVC010
     FM112100 31007KT P6SM OVC015=



000
FTUS45 KGGW 110520
TAFGGW
TAF
KGGW 110520Z 1106/1206 12007KT P6SM VCSH OVC020
     FM110800 11008KT P6SM -SN OVC015
     FM112100 31006KT P6SM OVC015
     FM120100 33005KT P6SM BKN025=



000
FTUS45 KGGW 110520
TAFSDY
TAF
KSDY 110520Z 1106/1206 VRB03KT P6SM OVC014
     FM110800 00000KT P6SM -SN OVC020
     FM111200 08007KT 2SM -SN OVC015
     FM112100 02004KT P6SM VCSH OVC008
     FM120000 01006KT P6SM OVC015
      AMD LTD TO CLD VIS AND WIND=



000
FTUS45 KGGW 110520
TAFGDV
TAF
KGDV 110520Z 1106/1206 00000KT P6SM OVC018
     FM111100 08004KT 5SM -SN OVC025
     FM112100 31010KT P6SM VCSH BKN015
     FM120000 34008KT P6SM BKN015
      AMD LTD TO CLD VIS AND WIND=



000
FTUS45 KGGW 110520
TAFGGW
TAF
KGGW 110520Z 1106/1206 12007KT P6SM VCSH OVC020
     FM110800 11008KT P6SM -SN OVC015
     FM112100 31006KT P6SM OVC015
     FM120100 33005KT P6SM BKN025=



000
FTUS45 KGGW 110520
TAFGDV
TAF
KGDV 110520Z 1106/1206 00000KT P6SM OVC018
     FM111100 08004KT 5SM -SN OVC025
     FM112100 31010KT P6SM VCSH BKN015
     FM120000 34008KT P6SM BKN015
      AMD LTD TO CLD VIS AND WIND=



000
FTUS45 KGGW 110520
TAFSDY
TAF
KSDY 110520Z 1106/1206 VRB03KT P6SM OVC014
     FM110800 00000KT P6SM -SN OVC020
     FM111200 08007KT 2SM -SN OVC015
     FM112100 02004KT P6SM VCSH OVC008
     FM120000 01006KT P6SM OVC015
      AMD LTD TO CLD VIS AND WIND=



000
FTUS45 KGGW 102320
TAFGGW
TAF
KGGW 102320Z 1100/1124 02010KT P6SM BKN015
     FM110400 10006KT P6SM OVC060
     FM110600 12007KT P6SM VCSH OVC025
     FM111800 11005KT P6SM OVC010=



000
FTUS45 KGGW 102320
TAFOLF
TAF
KOLF 102320Z 1100/1124 01011KT P6SM BKN020
     FM110600 VRB03KT 6SM -SN OVC030
     FM111200 09008KT P6SM OVC003
     FM111800 08006KT P6SM OVC008
     FM112100 31007KT P6SM OVC015=



000
FTUS45 KGGW 102320
TAFGDV
TAF
KGDV 102320Z 1100/1124 36011KT P6SM BKN012
     FM111100 08004KT P6SM VCSH OVC005
     FM112100 31010KT P6SM VCSH BKN020
      AMD LTD TO CLD VIS AND WIND=



000
FTUS45 KGGW 102320
TAFGGW
TAF
KGGW 102320Z 1100/1124 02010KT P6SM BKN015
     FM110400 10006KT P6SM OVC060
     FM110600 12007KT P6SM VCSH OVC025
     FM111800 11005KT P6SM OVC010=



000
FTUS45 KGGW 102320
TAFSDY
TAF
KSDY 102320Z 1100/1124 36011KT P6SM OVC019
     FM110300 36005KT P6SM OVC015
     FM111200 08007KT 5SM -SN OVC008
     FM111800 10006KT P6SM VCSH OVC008
      AMD LTD TO CLD VIS AND WIND=



000
FTUS45 KGGW 102320
TAFSDY
TAF
KSDY 102320Z 1100/1124 36011KT P6SM OVC019
     FM110300 36005KT P6SM OVC015
     FM111200 08007KT 5SM -SN OVC008
     FM111800 10006KT P6SM VCSH OVC008
      AMD LTD TO CLD VIS AND WIND=



000
FTUS45 KGGW 102320
TAFOLF
TAF
KOLF 102320Z 1100/1124 01011KT P6SM BKN020
     FM110600 VRB03KT 6SM -SN OVC030
     FM111200 09008KT P6SM OVC003
     FM111800 08006KT P6SM OVC008
     FM112100 31007KT P6SM OVC015=



000
FTUS45 KGGW 102320
TAFGDV
TAF
KGDV 102320Z 1100/1124 36011KT P6SM BKN012
     FM111100 08004KT P6SM VCSH OVC005
     FM112100 31010KT P6SM VCSH BKN020
      AMD LTD TO CLD VIS AND WIND=



000
FTUS45 KGGW 102320
TAFGDV
TAF
KGDV 102320Z 1100/1124 36011KT P6SM BKN012
     FM111100 08004KT P6SM VCSH OVC005
     FM112100 31010KT P6SM VCSH BKN020
      AMD LTD TO CLD VIS AND WIND=



000
FTUS45 KGGW 101720 AAB
TAFSDY
TAF AMD
KSDY 101720Z 1017/1118 34013KT P6SM BKN015
     FM110000 36007KT P6SM BKN015
     FM110600 VRB03KT P6SM OVC015
     FM111200 08004KT P6SM VCSH OVC008
      AMD LTD TO CLD VIS AND WIND=



000
FTUS45 KGGW 101720 AAB
TAFGGW
TAF AMD
KGGW 101720Z 1017/1118 34010KT P6SM BKN012
     FM102100 35009KT P6SM BKN010
     FM110000 02005KT P6SM BKN015=



000
FTUS45 KGGW 101720 AAA
TAFGDV
TAF AMD
KGDV 101720Z 1017/1118 34015KT P6SM SCT015
     FM102000 34012KT P6SM BKN015
     FM110000 35007KT P6SM BKN015
     FM111200 09004KT P6SM VCSH OVC008
     FM111500 07004KT P6SM VCSH OVC003
      AMD LTD TO CLD VIS AND WIND=



000
FTUS45 KGGW 101720 AAA
TAFOLF
TAF AMD
KOLF 101720Z 1017/1118 33011KT P6SM BKN018
     FM102100 35010KT P6SM BKN015
     FM110000 01006KT P6SM BKN020
     FM110600 08004KT P6SM OVC015
     FM111200 09006KT P6SM VCSH SCT003 OVC015=



000
FTUS45 KGGW 101449 AAA
TAFSDY
TAF AMD
KSDY 101449Z 1015/1112 32009KT P6SM FEW010 SCT200
     FM101800 33013KT P6SM SCT008 BKN050
     FM110000 36007KT P6SM BKN015 OVC035
     FM110800 VRB05KT P6SM BKN015
      AMD LTD TO CLD VIS AND WIND=



000
FTUS45 KGGW 101124
TAFOLF
TAF
KOLF 101124Z 1012/1112 24009KT P6SM SCT250
     FM101500 30008KT P6SM BKN200
     FM101800 35010KT P6SM BKN080
     FM110600 08004KT P6SM OVC015=



000
FTUS45 KGGW 101124
TAFGDV
TAF
KGDV 101124Z 1012/1112 29010KT P6SM SCT250
     FM101800 33012KT P6SM SCT200
     FM102300 35007KT P6SM BKN070
     FM110400 06004KT P6SM BKN035
     FM110800 06004KT P6SM BKN020
      AMD LTD TO CLD VIS AND WIND=



000
FTUS45 KGGW 101124
TAFGGW
TAF
KGGW 101124Z 1012/1112 30008KT P6SM SCT250
     FM101800 34009KT P6SM BKN120
     FM110000 02005KT P6SM BKN100
     FM110300 08004KT P6SM BKN070
     FM110600 11005KT P6SM BKN020=



000
FTUS45 KGGW 101124
TAFSDY
TAF
KSDY 101124Z 1012/1112 21006KT P6SM SCT250
     FM101500 32009KT P6SM SCT200
     FM101800 33013KT P6SM BKN080
     FM110000 36007KT P6SM BKN025
     FM110800 VRB05KT P6SM OVC015
      AMD LTD TO CLD VIS AND WIND=



000
FTUS45 KGGW 100536
TAFOLF
TAF
KOLF 100536Z 1006/1106 26006KT P6SM BKN200
     FM101500 30008KT P6SM SCT090 BKN150
     FM101800 34010KT P6SM SCT040 BKN080
     FM110000 02007KT P6SM BKN035=



000
FTUS45 KGGW 100536
TAFGGW
TAF
KGGW 100536Z 1006/1106 VRB04KT P6SM SCT200
     FM102000 34009KT P6SM SCT070 BKN140
     FM110000 03006KT P6SM SCT015 BKN030
     FM110100 05006KT P6SM SCT040 BKN060=



000
FTUS45 KGGW 100536
TAFOLF
TAF
KOLF 100536Z 1006/1106 26006KT P6SM BKN200
     FM101500 30008KT P6SM SCT090 BKN150
     FM101800 34010KT P6SM SCT040 BKN080
     FM110000 02007KT P6SM BKN035=



000
FTUS45 KGGW 100536
TAFSDY
TAF
KSDY 100536Z 1006/1106 24006KT P6SM SCT150 BKN250
     FM101800 33013KT P6SM SCT030 BKN060
     FM102200 34012KT P6SM BKN025
     FM110000 36008KT P6SM BKN030
     FM110300 01007KT P6SM BKN020
      AMD LTD TO CLD VIS AND WIND=



000
FTUS45 KGGW 100536
TAFGDV
TAF
KGDV 100536Z 1006/1106 24007KT P6SM SCT200 BKN250
     FM101200 29010KT P6SM FEW250
     FM101800 33012KT P6SM FEW080 SCT120
     FM110000 35008KT P6SM BKN040
      AMD LTD TO CLD VIS AND WIND=



000
FTUS45 KGGW 100536
TAFGDV
TAF
KGDV 100536Z 1006/1106 24007KT P6SM SCT200 BKN250
     FM101200 29010KT P6SM FEW250
     FM101800 33012KT P6SM FEW080 SCT120
     FM110000 35008KT P6SM BKN040
      AMD LTD TO CLD VIS AND WIND=



000
FTUS45 KGGW 100536
TAFGGW
TAF
KGGW 100536Z 1006/1106 VRB04KT P6SM SCT200
     FM102000 34009KT P6SM SCT070 BKN140
     FM110000 03006KT P6SM SCT015 BKN030
     FM110100 05006KT P6SM SCT040 BKN060=



000
FTUS45 KGGW 100536
TAFOLF
TAF
KOLF 100536Z 1006/1106 26006KT P6SM BKN200
     FM101500 30008KT P6SM SCT090 BKN150
     FM101800 34010KT P6SM SCT040 BKN080
     FM110000 02007KT P6SM BKN035=



000
FTUS45 KGGW 100536
TAFGDV
TAF
KGDV 100536Z 1006/1106 24007KT P6SM SCT200 BKN250
     FM101200 29010KT P6SM FEW250
     FM101800 33012KT P6SM FEW080 SCT120
     FM110000 35008KT P6SM BKN040
      AMD LTD TO CLD VIS AND WIND=



000
FTUS45 KGGW 100536
TAFSDY
TAF
KSDY 100536Z 1006/1106 24006KT P6SM SCT150 BKN250
     FM101800 33013KT P6SM SCT030 BKN060
     FM102200 34012KT P6SM BKN025
     FM110000 36008KT P6SM BKN030
     FM110300 01007KT P6SM BKN020
      AMD LTD TO CLD VIS AND WIND=



000
FTUS45 KGGW 092320
TAFSDY
TAF
KSDY 092320Z 1000/1024 VRB04KT P6SM BKN080
     FM101200 29008KT P6SM SCT250
     FM101800 33010KT P6SM SCT030 BKN080
      AMD LTD TO CLD VIS AND WIND=



000
FTUS45 KGGW 092320
TAFGDV
TAF
KGDV 092320Z 1000/1024 29007KT P6SM SCT250
     FM100100 28006KT P6SM BKN250
     FM102000 33009KT P6SM SCT030 BKN080
      AMD LTD TO CLD VIS AND WIND=



000
FTUS45 KGGW 092320
TAFOLF
TAF
KOLF 092320Z 1000/1024 26005KT P6SM SCT250
     FM101800 33008KT P6SM BKN060=



000
FTUS45 KGGW 092320
TAFGGW
TAF
KGGW 092320Z 1000/1024 VRB06KT P6SM SCT250
     FM100200 06004KT P6SM BKN250
     FM102100 34008KT P6SM SCT030 SCT090=



000
FTUS45 KGGW 091720
TAFOLF
TAF
KOLF 091720Z 0918/1018 25004KT P6SM BKN080
     FM100300 VRB03KT P6SM BKN250
     FM101200 28008KT P6SM SCT250=



000
FTUS45 KGGW 091720
TAFGGW
TAF
KGGW 091720Z 0918/1018 VRB03KT P6SM SCT100
     FM100300 06004KT P6SM BKN250
     FM100900 31005KT P6SM SCT250=



000
FTUS45 KGGW 091720
TAFOLF
TAF
KOLF 091720Z 0918/1018 25004KT P6SM BKN080
     FM100300 VRB03KT P6SM BKN250
     FM101200 28008KT P6SM SCT250=



000
FTUS45 KGGW 091720
TAFGDV
TAF
KGDV 091720Z 0918/1018 29008KT P6SM BKN080
     FM100100 28006KT P6SM BKN250
     FM100900 25007KT P6SM SCT250
      AMD LTD TO CLD VIS AND WIND=



000
FTUS45 KGGW 091720
TAFSDY
TAF
KSDY 091720Z 0918/1018 31008KT P6SM OVC080
     FM100400 25004KT P6SM BKN200
     FM101500 31008KT P6SM SCT030 SCT200
      AMD LTD TO CLD VIS AND WIND=



000
FTUS45 KGGW 091720
TAFGDV
TAF
KGDV 091720Z 0918/1018 29008KT P6SM BKN080
     FM100100 28006KT P6SM BKN250
     FM100900 25007KT P6SM SCT250
      AMD LTD TO CLD VIS AND WIND=



000
FTUS45 KGGW 091720
TAFGDV
TAF
KGDV 091720Z 0918/1018 29008KT P6SM BKN080
     FM100100 28006KT P6SM BKN250
     FM100900 25007KT P6SM SCT250
      AMD LTD TO CLD VIS AND WIND=



000
FTUS45 KGGW 091720
TAFOLF
TAF
KOLF 091720Z 0918/1018 25004KT P6SM BKN080
     FM100300 VRB03KT P6SM BKN250
     FM101200 28008KT P6SM SCT250=



000
FTUS45 KGGW 091720
TAFGGW
TAF
KGGW 091720Z 0918/1018 VRB03KT P6SM SCT100
     FM100300 06004KT P6SM BKN250
     FM100900 31005KT P6SM SCT250=



000
FTUS45 KGGW 091720
TAFSDY
TAF
KSDY 091720Z 0918/1018 31008KT P6SM OVC080
     FM100400 25004KT P6SM BKN200
     FM101500 31008KT P6SM SCT030 SCT200
      AMD LTD TO CLD VIS AND WIND=



000
FTUS45 KGGW 091138
TAFGGW
TAF
KGGW 091138Z 0912/1012 31004KT P6SM BKN090
     FM091800 28005KT P6SM SCT150
     FM100200 06004KT P6SM BKN200
     FM100500 VRB05KT P6SM SCT250=



000
FTUS45 KGGW 091138
TAFSDY
TAF
KSDY 091138Z 0912/1012 29005KT P6SM BKN090
     FM091600 30009KT P6SM OVC050
     FM091900 30006KT P6SM OVC035
     FM100500 24004KT P6SM BKN150
      AMD LTD TO CLD VIS AND WIND=



000
FTUS45 KGGW 091138
TAFGDV
TAF
KGDV 091138Z 0912/1012 30007KT P6SM BKN080
     FM100100 28006KT P6SM BKN200
      AMD LTD TO CLD VIS AND WIND=



000
FTUS45 KGGW 091138
TAFOLF
TAF
KOLF 091138Z 0912/1012 26005KT P6SM BKN080
     FM100900 26006KT P6SM SCT250=



000
FTUS45 KGGW 090530
TAFGDV
TAF
KGDV 090530Z 0906/1006 29005KT P6SM BKN100
     FM091200 30009KT P6SM BKN050
      AMD LTD TO CLD VIS AND WIND=



000
FTUS45 KGGW 090530
TAFSDY
TAF
KSDY 090530Z 0906/1006 VRB03KT P6SM BKN050 OVC100
     FM091200 31006KT P6SM VCSH OVC045
     FM091500 30005KT 6SM -SN OVC025
     FM092200 32005KT P6SM VCSH OVC040
     FM100000 00000KT P6SM BKN080
      AMD LTD TO CLD VIS AND WIND=



000
FTUS45 KGGW 090530
TAFGGW
TAF
KGGW 090530Z 0906/1006 VRB04KT P6SM BKN150
     FM091800 28006KT P6SM SCT120
     FM100300 VRB03KT P6SM SCT250=



000
FTUS45 KGGW 090530
TAFOLF
TAF
KOLF 090530Z 0906/1006 28004KT P6SM BKN110=



000
FTUS45 KGGW 090530
TAFGDV
TAF
KGDV 090530Z 0906/1006 29005KT P6SM BKN100
     FM091200 30009KT P6SM BKN050
      AMD LTD TO CLD VIS AND WIND=



000
FTUS45 KGGW 090530
TAFOLF
TAF
KOLF 090530Z 0906/1006 28004KT P6SM BKN110=



    US Dept of Commerce
    National Oceanic and Atmospheric Administration
    National Weather Service
    1325 East West Highway
    Silver Spring, MD 20910
    Page Author: NWS Internet Services Team
Disclaimer
Information Quality
Credits
Glossary
Privacy Policy
Freedom of Information Act (FOIA)
About Us
Career Opportunities